Time;durP1;ratioP1;P1;durP2;ratioP2;P2;SDS_P1;SDS_P2;PMS_P1;PMS_P2;Temp;Humidity;BMP_temperature;BMP_pressure;BME280_temperature;BME280_humidity;BME280_pressure;Samples;Min_cycle;Max_cycle;Signal;HPM_P1;HPM_P2
2023/12/10 16:06:40;;;;;;;13.75;5.05;;;;;;;9.35;83.41;98631.13;7220318;39;20279;31
2023/12/10 16:17:14;;;;;;;10.90;3.85;;;;;;;9.35;83.37;98601.53;7275519;40;20280;31
2023/12/10 16:22:46;;;;;;;14.10;4.05;;;;;;;9.31;83.82;98567.09;7253191;40;20710;31
2023/12/10 16:33:08;;;;;;;15.07;4.10;;;;;;;9.29;84.04;98556.53;7233846;40;20276;31
2023/12/10 16:43:49;;;;;;;14.00;5.10;;;;;;;9.13;84.70;98537.75;7292376;39;20282;31
2023/12/10 16:49:21;;;;;;;18.07;5.63;;;;;;;9.08;84.81;98524.03;7256075;40;20738;31
2023/12/10 16:54:56;;;;;;;16.47;5.20;;;;;;;9.08;84.57;98528.56;7199293;40;20707;31
2023/12/10 17:00:34;;;;;;;13.75;4.65;;;;;;;8.96;84.70;98501.19;7178050;40;20528;31
2023/12/10 17:05:54;;;;;;;18.15;4.50;;;;;;;8.91;85.50;98501.72;7114658;41;20929;31
2023/12/10 17:11:29;;;;;;;12.07;3.70;;;;;;;8.84;85.25;98508.81;7168193;40;20258;31
2023/12/10 17:17:05;;;;;;;17.20;5.23;;;;;;;8.81;85.94;98473.38;7153296;40;20347;31
2023/12/10 17:22:25;;;;;;;12.93;3.57;;;;;;;8.85;86.21;98472.03;7239009;40;20249;31
2023/12/10 17:27:46;;;;;;;12.67;3.93;;;;;;;8.86;86.26;98471.03;7204254;40;20294;31
2023/12/10 17:33:22;;;;;;;14.40;3.70;;;;;;;8.86;85.66;98453.03;7215583;40;20258;31
2023/12/10 17:44:01;;;;;;;12.60;4.20;;;;;;;8.86;85.46;98412.72;7193382;40;20276;31
2023/12/10 17:49:38;;;;;;;13.47;4.10;;;;;;;8.87;85.26;98381.31;7174104;40;20388;31
2023/12/10 17:54:58;;;;;;;8.80;2.90;;;;;;;8.86;85.46;98377.78;7164798;40;20767;31
2023/12/10 18:00:52;;;;;;;9.83;3.30;;;;;;;8.85;85.05;98357.31;7157849;40;20271;31
2023/12/10 18:11:28;;;;;;;14.10;3.43;;;;;;;8.94;83.69;98331.22;7226470;40;20340;31
2023/12/10 18:17:04;;;;;;;15.70;3.70;;;;;;;9.04;83.20;98338.03;7216199;40;20242;31
2023/12/10 18:22:39;;;;;;;14.60;3.50;;;;;;;9.10;83.01;98327.59;7152540;40;20259;31
2023/12/10 18:33:17;;;;;;;19.40;6.50;;;;;;;9.12;82.15;98296.00;7244424;40;20284;31
2023/12/10 18:44:00;;;;;;;17.90;7.70;;;;;;;9.27;80.53;98243.09;7116917;40;20485;31
2023/12/10 18:49:37;;;;;;;13.63;4.63;;;;;;;9.26;80.25;98230.69;7241176;40;20234;31
2023/12/10 18:55:12;;;;;;;14.25;4.10;;;;;;;9.31;78.83;98228.28;7243265;40;20759;31
2023/12/10 19:00:47;;;;;;;9.70;2.97;;;;;;;9.37;78.53;98217.63;7227830;39;20701;31
2023/12/10 19:06:23;;;;;;;12.93;2.93;;;;;;;9.39;78.38;98218.28;7187920;40;20269;31
2023/12/10 19:11:43;;;;;;;9.47;2.87;;;;;;;9.43;79.11;98205.31;7179585;40;20769;31
2023/12/10 19:17:16;;;;;;;11.47;3.20;;;;;;;9.45;79.20;98196.03;7148861;40;20700;31
2023/12/10 19:22:50;;;;;;;8.17;2.73;;;;;;;9.45;78.51;98168.31;7137429;40;20711;31
2023/12/10 19:28:11;;;;;;;12.37;2.83;;;;;;;9.54;77.90;98159.13;7153610;40;20305;31
2023/12/10 19:33:32;;;;;;;9.80;2.80;;;;;;;9.60;77.10;98141.41;7185643;40;20260;31
2023/12/10 19:39:05;;;;;;;11.25;2.95;;;;;;;9.57;77.93;98131.00;7205552;40;20695;31
2023/12/10 19:44:25;;;;;;;9.40;2.83;;;;;;;9.61;78.82;98138.50;7231457;39;20826;31
2023/12/10 19:50:00;;;;;;;8.30;2.50;;;;;;;9.61;77.18;98140.41;7297405;39;20249;31
2023/12/10 19:55:35;;;;;;;7.95;2.60;;;;;;;9.68;76.83;98139.47;7243562;40;20708;31
2023/12/10 20:06:14;;;;;;;9.17;4.33;;;;;;;9.64;78.31;98135.47;7173732;40;20277;31
2023/12/10 20:16:54;;;;;;;8.00;2.50;;;;;;;9.63;79.31;98131.09;7173939;40;20807;31
2023/12/10 20:22:29;;;;;;;7.10;2.00;;;;;;;9.59;80.27;98107.47;7220480;40;20776;31
2023/12/10 20:28:04;;;;;;;7.00;2.60;;;;;;;9.53;82.04;98130.53;7173716;40;20780;31
2023/12/10 20:38:44;;;;;;;7.60;2.73;;;;;;;9.48;84.56;98123.03;7191835;40;20258;31
2023/12/10 20:49:09;;;;;;;5.75;2.20;;;;;;;9.45;86.98;98098.38;7204071;40;20270;31
2023/12/10 20:59:50;;;;;;;7.43;2.13;;;;;;;9.46;89.10;98074.00;7274856;39;20256;31
2023/12/10 21:05:10;;;;;;;4.75;2.00;;;;;;;9.49;89.92;98088.91;7279915;40;20685;31
2023/12/10 21:10:31;;;;;;;4.10;1.90;;;;;;;9.48;91.00;98085.38;7259479;40;20238;31
2023/12/10 21:16:09;;;;;;;5.40;2.00;;;;;;;9.41;92.29;98072.87;7255285;40;20386;31
2023/12/10 21:21:28;;;;;;;6.10;2.30;;;;;;;9.46;93.37;98057.03;7225189;40;20728;31
2023/12/10 21:26:48;;;;;;;6.13;1.80;;;;;;;9.49;93.93;98048.56;7272011;40;20464;31
2023/12/10 21:32:25;;;;;;;5.00;1.75;;;;;;;9.46;94.94;98057.84;7242176;40;20250;31
2023/12/10 21:37:45;;;;;;;5.50;2.20;;;;;;;9.50;96.07;98077.97;7211119;40;22302;31
2023/12/10 21:43:05;;;;;;;4.53;2.17;;;;;;;9.50;95.83;98077.97;7206246;40;20710;31
2023/12/10 21:48:41;;;;;;;4.83;2.07;;;;;;;9.50;97.17;98069.06;7220336;40;21367;31
2023/12/10 21:54:05;;;;;;;3.97;1.63;;;;;;;9.58;97.68;98073.50;7233198;40;20245;31
2023/12/10 21:59:38;;;;;;;3.30;1.50;;;;;;;9.54;98.37;98073.03;7235475;40;20454;31
2023/12/10 22:05:15;;;;;;;4.55;1.45;;;;;;;9.57;99.26;98078.03;7257316;40;20256;31
2023/12/10 22:10:53;;;;;;;2.60;1.50;;;;;;;9.63;98.70;98071.91;7221093;40;20866;31
2023/12/10 22:16:27;;;;;;;3.23;1.20;;;;;;;9.75;98.54;98085.72;7177119;40;20243;31
2023/12/10 22:22:02;;;;;;;2.20;1.15;;;;;;;9.78;98.06;98075.44;7131780;40;20780;31
2023/12/10 22:27:37;;;;;;;2.13;1.27;;;;;;;9.82;98.61;98083.94;7090432;40;20812;31
2023/12/10 22:32:59;;;;;;;2.60;1.17;;;;;;;9.82;98.90;98087.47;7087127;41;20291;31
2023/12/10 22:43:40;;;;;;;3.83;1.30;;;;;;;9.79;100.00;98100.44;7204969;40;21448;31
2023/12/10 22:54:04;;;;;;;2.90;1.10;;;;;;;9.88;100.00;98097.47;7277412;40;20288;31
2023/12/10 22:59:41;;;;;;;3.43;1.00;;;;;;;9.91;100.00;98102.50;7236652;40;20253;31
2023/12/10 23:05:02;;;;;;;3.50;1.20;;;;;;;9.94;100.00;98102.09;7229560;40;21007;31
2023/12/10 23:10:20;;;;;;;1.33;0.90;;;;;;;10.05;100.00;98113.41;7020284;40;20964;31
2023/12/10 23:15:57;;;;;;;1.15;1.00;;;;;;;10.04;99.33;98109.88;7192418;40;20245;31
2023/12/10 23:21:19;;;;;;;2.53;1.20;;;;;;;10.10;99.82;98117.19;7216121;40;20253;31
2023/12/10 23:26:39;;;;;;;1.80;1.05;;;;;;;10.14;99.22;98114.94;7263835;39;20241;31
2023/12/10 23:32:15;;;;;;;1.00;0.90;;;;;;;10.12;99.25;98100.84;7243867;39;20769;31
2023/12/10 23:37:36;;;;;;;2.55;1.40;;;;;;;10.17;98.98;98095.75;7197962;40;20721;31
2023/12/10 23:42:56;;;;;;;1.50;1.20;;;;;;;10.18;99.24;98082.09;7183210;40;20678;31
2023/12/10 23:48:31;;;;;;;1.30;1.10;;;;;;;10.15;98.73;98081.59;7151792;40;20942;31
2023/12/10 23:54:06;;;;;;;2.27;1.10;;;;;;;10.21;98.47;98078.19;7200345;40;20782;31
2023/12/10 23:59:28;;;;;;;2.15;1.10;;;;;;;10.19;98.21;98083.75;7228383;40;20322;31
